sensor_id;sensor_type;location;lat;lon;timestamp;P1;durP1;ratioP1;P2;durP2;ratioP2
17604;SDS011;8921;50.964;6.800;2023-11-19T00:00:03;2.90;;;1.10;;
17604;SDS011;8921;50.964;6.800;2023-11-19T00:02:32;2.93;;;1.00;;
17604;SDS011;8921;50.964;6.800;2023-11-19T00:05:00;2.40;;;0.80;;
17604;SDS011;8921;50.964;6.800;2023-11-19T00:07:28;2.70;;;1.07;;
17604;SDS011;8921;50.964;6.800;2023-11-19T00:09:56;4.83;;;1.30;;
17604;SDS011;8921;50.964;6.800;2023-11-19T00:12:25;3.40;;;1.00;;
17604;SDS011;8921;50.964;6.800;2023-11-19T00:14:53;3.30;;;1.03;;
17604;SDS011;8921;50.964;6.800;2023-11-19T00:17:21;2.93;;;1.13;;
17604;SDS011;8921;50.964;6.800;2023-11-19T00:19:50;2.70;;;0.90;;
17604;SDS011;8921;50.964;6.800;2023-11-19T00:22:18;3.07;;;1.00;;
17604;SDS011;8921;50.964;6.800;2023-11-19T00:24:46;2.50;;;0.90;;
17604;SDS011;8921;50.964;6.800;2023-11-19T00:27:15;2.60;;;0.90;;
17604;SDS011;8921;50.964;6.800;2023-11-19T00:29:43;2.77;;;1.00;;
17604;SDS011;8921;50.964;6.800;2023-11-19T00:32:11;2.80;;;1.00;;
17604;SDS011;8921;50.964;6.800;2023-11-19T00:34:40;2.47;;;0.90;;
17604;SDS011;8921;50.964;6.800;2023-11-19T00:37:08;2.50;;;0.80;;
17604;SDS011;8921;50.964;6.800;2023-11-19T00:39:36;2.80;;;0.93;;
17604;SDS011;8921;50.964;6.800;2023-11-19T00:42:04;4.50;;;0.83;;
17604;SDS011;8921;50.964;6.800;2023-11-19T00:44:33;5.73;;;1.00;;
17604;SDS011;8921;50.964;6.800;2023-11-19T00:47:01;3.23;;;0.90;;
17604;SDS011;8921;50.964;6.800;2023-11-19T00:49:29;2.50;;;0.90;;
17604;SDS011;8921;50.964;6.800;2023-11-19T00:51:58;3.53;;;1.27;;
17604;SDS011;8921;50.964;6.800;2023-11-19T00:54:26;2.40;;;0.80;;
17604;SDS011;8921;50.964;6.800;2023-11-19T00:56:54;2.37;;;0.70;;
17604;SDS011;8921;50.964;6.800;2023-11-19T00:59:22;2.40;;;0.87;;
17604;SDS011;8921;50.964;6.800;2023-11-19T01:01:51;2.30;;;0.80;;
17604;SDS011;8921;50.964;6.800;2023-11-19T01:04:19;3.83;;;0.80;;
17604;SDS011;8921;50.964;6.800;2023-11-19T01:06:47;2.50;;;0.90;;
17604;SDS011;8921;50.964;6.800;2023-11-19T01:09:15;5.50;;;0.90;;
17604;SDS011;8921;50.964;6.800;2023-11-19T01:11:44;2.40;;;0.80;;
17604;SDS011;8921;50.964;6.800;2023-11-19T01:14:12;2.90;;;0.90;;
17604;SDS011;8921;50.964;6.800;2023-11-19T01:16:40;3.37;;;0.90;;
17604;SDS011;8921;50.964;6.800;2023-11-19T01:19:08;2.97;;;0.90;;
17604;SDS011;8921;50.964;6.800;2023-11-19T01:21:37;2.90;;;1.17;;
17604;SDS011;8921;50.964;6.800;2023-11-19T01:24:05;4.67;;;0.93;;
17604;SDS011;8921;50.964;6.800;2023-11-19T01:26:34;2.70;;;0.90;;
17604;SDS011;8921;50.964;6.800;2023-11-19T01:29:02;2.50;;;1.00;;
17604;SDS011;8921;50.964;6.800;2023-11-19T01:31:30;3.33;;;1.10;;
17604;SDS011;8921;50.964;6.800;2023-11-19T01:33:58;2.47;;;0.90;;
17604;SDS011;8921;50.964;6.800;2023-11-19T01:36:27;3.50;;;1.30;;
17604;SDS011;8921;50.964;6.800;2023-11-19T01:38:55;3.23;;;1.10;;
17604;SDS011;8921;50.964;6.800;2023-11-19T01:41:23;3.00;;;1.20;;
17604;SDS011;8921;50.964;6.800;2023-11-19T01:43:52;3.93;;;1.20;;
17604;SDS011;8921;50.964;6.800;2023-11-19T01:46:20;2.80;;;1.10;;
17604;SDS011;8921;50.964;6.800;2023-11-19T01:48:48;3.83;;;1.17;;
17604;SDS011;8921;50.964;6.800;2023-11-19T01:51:16;3.37;;;1.47;;
17604;SDS011;8921;50.964;6.800;2023-11-19T01:53:45;2.97;;;1.23;;
17604;SDS011;8921;50.964;6.800;2023-11-19T01:56:13;4.17;;;1.87;;
17604;SDS011;8921;50.964;6.800;2023-11-19T01:58:41;3.57;;;1.37;;
17604;SDS011;8921;50.964;6.800;2023-11-19T02:01:10;10.60;;;1.80;;
17604;SDS011;8921;50.964;6.800;2023-11-19T02:03:38;3.87;;;1.30;;
17604;SDS011;8921;50.964;6.800;2023-11-19T02:06:06;5.77;;;1.30;;
17604;SDS011;8921;50.964;6.800;2023-11-19T02:08:35;6.00;;;1.50;;
17604;SDS011;8921;50.964;6.800;2023-11-19T02:11:03;4.80;;;1.43;;
17604;SDS011;8921;50.964;6.800;2023-11-19T02:13:31;5.10;;;1.30;;
17604;SDS011;8921;50.964;6.800;2023-11-19T02:16:00;6.00;;;1.90;;
17604;SDS011;8921;50.964;6.800;2023-11-19T02:18:28;8.63;;;2.40;;
17604;SDS011;8921;50.964;6.800;2023-11-19T02:20:57;7.30;;;1.50;;
17604;SDS011;8921;50.964;6.800;2023-11-19T02:23:28;5.83;;;1.70;;
17604;SDS011;8921;50.964;6.800;2023-11-19T02:26:02;4.10;;;1.40;;
17604;SDS011;8921;50.964;6.800;2023-11-19T02:28:45;8.17;;;1.80;;
17604;SDS011;8921;50.964;6.800;2023-11-19T02:31:13;4.90;;;1.80;;
17604;SDS011;8921;50.964;6.800;2023-11-19T02:33:41;5.00;;;1.80;;
17604;SDS011;8921;50.964;6.800;2023-11-19T02:36:10;5.77;;;2.10;;
17604;SDS011;8921;50.964;6.800;2023-11-19T02:38:38;5.10;;;1.57;;
17604;SDS011;8921;50.964;6.800;2023-11-19T02:41:06;9.80;;;2.67;;
17604;SDS011;8921;50.964;6.800;2023-11-19T02:43:35;12.27;;;2.50;;
17604;SDS011;8921;50.964;6.800;2023-11-19T02:46:03;9.93;;;2.40;;
17604;SDS011;8921;50.964;6.800;2023-11-19T02:48:31;6.53;;;1.80;;
17604;SDS011;8921;50.964;6.800;2023-11-19T02:51:00;8.37;;;2.40;;
17604;SDS011;8921;50.964;6.800;2023-11-19T02:53:28;7.37;;;2.03;;
17604;SDS011;8921;50.964;6.800;2023-11-19T02:55:56;5.97;;;2.07;;
17604;SDS011;8921;50.964;6.800;2023-11-19T02:58:27;6.00;;;2.10;;
17604;SDS011;8921;50.964;6.800;2023-11-19T03:00:56;8.10;;;2.53;;
17604;SDS011;8921;50.964;6.800;2023-11-19T03:03:24;6.13;;;2.23;;
17604;SDS011;8921;50.964;6.800;2023-11-19T03:05:55;8.03;;;2.37;;
17604;SDS011;8921;50.964;6.800;2023-11-19T03:08:23;11.57;;;2.33;;
17604;SDS011;8921;50.964;6.800;2023-11-19T03:10:52;7.27;;;2.60;;
17604;SDS011;8921;50.964;6.800;2023-11-19T03:13:20;7.27;;;1.87;;
17604;SDS011;8921;50.964;6.800;2023-11-19T03:15:48;6.30;;;2.23;;
17604;SDS011;8921;50.964;6.800;2023-11-19T03:18:17;8.57;;;2.90;;
17604;SDS011;8921;50.964;6.800;2023-11-19T03:20:46;11.30;;;2.17;;
17604;SDS011;8921;50.964;6.800;2023-11-19T03:23:13;12.83;;;2.20;;
17604;SDS011;8921;50.964;6.800;2023-11-19T03:25:41;11.67;;;2.97;;
17604;SDS011;8921;50.964;6.800;2023-11-19T03:28:10;6.50;;;2.13;;
17604;SDS011;8921;50.964;6.800;2023-11-19T03:30:38;12.73;;;2.50;;
17604;SDS011;8921;50.964;6.800;2023-11-19T03:33:06;7.10;;;1.90;;
17604;SDS011;8921;50.964;6.800;2023-11-19T03:35:34;8.83;;;2.40;;
17604;SDS011;8921;50.964;6.800;2023-11-19T03:38:03;9.00;;;2.60;;
17604;SDS011;8921;50.964;6.800;2023-11-19T03:40:31;9.23;;;2.93;;
17604;SDS011;8921;50.964;6.800;2023-11-19T03:42:59;7.57;;;1.83;;
17604;SDS011;8921;50.964;6.800;2023-11-19T03:45:28;15.20;;;2.93;;
17604;SDS011;8921;50.964;6.800;2023-11-19T03:47:56;6.67;;;2.30;;
17604;SDS011;8921;50.964;6.800;2023-11-19T03:50:24;10.23;;;2.63;;
17604;SDS011;8921;50.964;6.800;2023-11-19T03:52:53;10.73;;;2.70;;
17604;SDS011;8921;50.964;6.800;2023-11-19T03:55:21;10.30;;;1.90;;
17604;SDS011;8921;50.964;6.800;2023-11-19T03:57:49;13.23;;;3.47;;
17604;SDS011;8921;50.964;6.800;2023-11-19T04:00:17;10.83;;;2.80;;
17604;SDS011;8921;50.964;6.800;2023-11-19T04:02:46;11.03;;;2.13;;
17604;SDS011;8921;50.964;6.800;2023-11-19T04:05:14;13.83;;;2.60;;
17604;SDS011;8921;50.964;6.800;2023-11-19T04:07:42;14.03;;;4.40;;
17604;SDS011;8921;50.964;6.800;2023-11-19T04:10:11;9.63;;;2.80;;
17604;SDS011;8921;50.964;6.800;2023-11-19T04:12:39;9.93;;;2.73;;
17604;SDS011;8921;50.964;6.800;2023-11-19T04:15:07;11.17;;;2.67;;
17604;SDS011;8921;50.964;6.800;2023-11-19T04:17:36;10.77;;;2.83;;
17604;SDS011;8921;50.964;6.800;2023-11-19T04:20:04;11.47;;;2.57;;
17604;SDS011;8921;50.964;6.800;2023-11-19T04:22:33;7.47;;;2.93;;
17604;SDS011;8921;50.964;6.800;2023-11-19T04:25:01;13.57;;;4.20;;
17604;SDS011;8921;50.964;6.800;2023-11-19T04:27:29;17.10;;;3.40;;
17604;SDS011;8921;50.964;6.800;2023-11-19T04:29:57;11.67;;;2.87;;
17604;SDS011;8921;50.964;6.800;2023-11-19T04:32:26;16.13;;;3.17;;
17604;SDS011;8921;50.964;6.800;2023-11-19T04:34:54;21.10;;;3.60;;
17604;SDS011;8921;50.964;6.800;2023-11-19T04:37:22;21.20;;;3.90;;
17604;SDS011;8921;50.964;6.800;2023-11-19T04:39:51;14.67;;;3.50;;
17604;SDS011;8921;50.964;6.800;2023-11-19T04:42:19;12.97;;;3.07;;
17604;SDS011;8921;50.964;6.800;2023-11-19T04:44:47;17.37;;;3.20;;
17604;SDS011;8921;50.964;6.800;2023-11-19T04:47:15;16.37;;;4.73;;
17604;SDS011;8921;50.964;6.800;2023-11-19T04:49:44;14.57;;;5.60;;
17604;SDS011;8921;50.964;6.800;2023-11-19T04:52:12;17.73;;;4.23;;
17604;SDS011;8921;50.964;6.800;2023-11-19T04:54:41;15.53;;;4.17;;
17604;SDS011;8921;50.964;6.800;2023-11-19T04:57:09;19.70;;;3.50;;
17604;SDS011;8921;50.964;6.800;2023-11-19T04:59:37;9.73;;;2.90;;
17604;SDS011;8921;50.964;6.800;2023-11-19T05:02:05;10.67;;;2.83;;
17604;SDS011;8921;50.964;6.800;2023-11-19T05:04:33;12.77;;;3.17;;
17604;SDS011;8921;50.964;6.800;2023-11-19T05:07:02;12.87;;;3.40;;
17604;SDS011;8921;50.964;6.800;2023-11-19T05:09:30;13.93;;;3.73;;
17604;SDS011;8921;50.964;6.800;2023-11-19T05:11:58;10.73;;;2.73;;
17604;SDS011;8921;50.964;6.800;2023-11-19T05:14:27;10.40;;;3.47;;
17604;SDS011;8921;50.964;6.800;2023-11-19T05:16:55;18.73;;;4.50;;
17604;SDS011;8921;50.964;6.800;2023-11-19T05:19:23;24.30;;;3.33;;
17604;SDS011;8921;50.964;6.800;2023-11-19T05:21:51;19.77;;;3.80;;
17604;SDS011;8921;50.964;6.800;2023-11-19T05:24:20;19.77;;;5.13;;
17604;SDS011;8921;50.964;6.800;2023-11-19T05:26:48;18.47;;;3.60;;
17604;SDS011;8921;50.964;6.800;2023-11-19T05:29:16;14.63;;;4.10;;
17604;SDS011;8921;50.964;6.800;2023-11-19T05:31:45;17.03;;;4.40;;
17604;SDS011;8921;50.964;6.800;2023-11-19T05:34:13;13.67;;;3.23;;
17604;SDS011;8921;50.964;6.800;2023-11-19T05:36:41;17.70;;;3.60;;
17604;SDS011;8921;50.964;6.800;2023-11-19T05:39:09;20.83;;;4.17;;
17604;SDS011;8921;50.964;6.800;2023-11-19T05:41:38;14.60;;;4.13;;
17604;SDS011;8921;50.964;6.800;2023-11-19T05:44:06;10.83;;;3.77;;
17604;SDS011;8921;50.964;6.800;2023-11-19T05:46:34;15.53;;;4.10;;
17604;SDS011;8921;50.964;6.800;2023-11-19T05:49:03;9.13;;;3.47;;
17604;SDS011;8921;50.964;6.800;2023-11-19T05:51:31;12.27;;;3.40;;
17604;SDS011;8921;50.964;6.800;2023-11-19T05:53:59;11.83;;;3.70;;
17604;SDS011;8921;50.964;6.800;2023-11-19T05:56:27;17.30;;;4.27;;
17604;SDS011;8921;50.964;6.800;2023-11-19T05:58:56;18.10;;;3.80;;
17604;SDS011;8921;50.964;6.800;2023-11-19T06:01:24;11.50;;;3.37;;
17604;SDS011;8921;50.964;6.800;2023-11-19T06:03:52;16.10;;;5.17;;
17604;SDS011;8921;50.964;6.800;2023-11-19T06:06:20;24.10;;;3.90;;
17604;SDS011;8921;50.964;6.800;2023-11-19T06:08:49;17.07;;;4.10;;
17604;SDS011;8921;50.964;6.800;2023-11-19T06:11:17;11.30;;;4.13;;
17604;SDS011;8921;50.964;6.800;2023-11-19T06:13:45;16.60;;;5.13;;
17604;SDS011;8921;50.964;6.800;2023-11-19T06:16:16;16.43;;;4.60;;
17604;SDS011;8921;50.964;6.800;2023-11-19T06:18:44;21.43;;;4.40;;
17604;SDS011;8921;50.964;6.800;2023-11-19T06:21:13;23.03;;;4.70;;
17604;SDS011;8921;50.964;6.800;2023-11-19T06:23:41;17.80;;;3.87;;
17604;SDS011;8921;50.964;6.800;2023-11-19T06:26:09;19.60;;;4.53;;
17604;SDS011;8921;50.964;6.800;2023-11-19T06:28:38;21.00;;;4.20;;
17604;SDS011;8921;50.964;6.800;2023-11-19T06:31:06;18.20;;;5.03;;
17604;SDS011;8921;50.964;6.800;2023-11-19T06:33:34;13.87;;;4.50;;
17604;SDS011;8921;50.964;6.800;2023-11-19T06:36:02;26.70;;;4.40;;
17604;SDS011;8921;50.964;6.800;2023-11-19T06:38:31;16.27;;;4.80;;
17604;SDS011;8921;50.964;6.800;2023-11-19T06:40:59;22.30;;;4.87;;
17604;SDS011;8921;50.964;6.800;2023-11-19T06:43:27;21.80;;;4.83;;
17604;SDS011;8921;50.964;6.800;2023-11-19T06:45:56;18.17;;;3.70;;
17604;SDS011;8921;50.964;6.800;2023-11-19T06:48:24;22.13;;;3.90;;
17604;SDS011;8921;50.964;6.800;2023-11-19T06:50:52;16.53;;;4.00;;
17604;SDS011;8921;50.964;6.800;2023-11-19T06:53:20;11.60;;;3.50;;
17604;SDS011;8921;50.964;6.800;2023-11-19T06:55:49;18.10;;;4.30;;
17604;SDS011;8921;50.964;6.800;2023-11-19T06:58:17;18.20;;;4.10;;
17604;SDS011;8921;50.964;6.800;2023-11-19T07:00:45;20.80;;;4.10;;
17604;SDS011;8921;50.964;6.800;2023-11-19T07:03:14;18.47;;;4.87;;
17604;SDS011;8921;50.964;6.800;2023-11-19T07:05:42;19.43;;;3.63;;
17604;SDS011;8921;50.964;6.800;2023-11-19T07:08:10;15.67;;;4.13;;
17604;SDS011;8921;50.964;6.800;2023-11-19T07:10:38;17.80;;;4.07;;
17604;SDS011;8921;50.964;6.800;2023-11-19T07:13:07;18.80;;;4.73;;
17604;SDS011;8921;50.964;6.800;2023-11-19T07:15:35;17.43;;;5.70;;
17604;SDS011;8921;50.964;6.800;2023-11-19T07:18:03;18.40;;;5.57;;
17604;SDS011;8921;50.964;6.800;2023-11-19T07:20:31;25.60;;;5.40;;
17604;SDS011;8921;50.964;6.800;2023-11-19T07:23:00;15.53;;;3.70;;
17604;SDS011;8921;50.964;6.800;2023-11-19T07:25:28;17.17;;;4.60;;
17604;SDS011;8921;50.964;6.800;2023-11-19T07:27:56;23.23;;;4.10;;
17604;SDS011;8921;50.964;6.800;2023-11-19T07:30:25;23.30;;;4.60;;
17604;SDS011;8921;50.964;6.800;2023-11-19T07:32:53;18.20;;;4.20;;
17604;SDS011;8921;50.964;6.800;2023-11-19T07:35:21;21.07;;;4.03;;
17604;SDS011;8921;50.964;6.800;2023-11-19T07:37:50;16.50;;;3.70;;
17604;SDS011;8921;50.964;6.800;2023-11-19T07:40:18;23.50;;;4.07;;
17604;SDS011;8921;50.964;6.800;2023-11-19T07:42:46;26.83;;;5.33;;
17604;SDS011;8921;50.964;6.800;2023-11-19T07:45:17;21.40;;;4.33;;
17604;SDS011;8921;50.964;6.800;2023-11-19T07:47:45;14.80;;;4.20;;
17604;SDS011;8921;50.964;6.800;2023-11-19T07:50:14;22.60;;;4.07;;
17604;SDS011;8921;50.964;6.800;2023-11-19T07:52:42;21.53;;;4.97;;
17604;SDS011;8921;50.964;6.800;2023-11-19T07:55:10;15.13;;;4.20;;
17604;SDS011;8921;50.964;6.800;2023-11-19T07:57:39;26.77;;;4.87;;
17604;SDS011;8921;50.964;6.800;2023-11-19T08:00:07;17.93;;;4.20;;
17604;SDS011;8921;50.964;6.800;2023-11-19T08:02:35;16.53;;;4.10;;
17604;SDS011;8921;50.964;6.800;2023-11-19T08:05:04;16.80;;;3.83;;
17604;SDS011;8921;50.964;6.800;2023-11-19T08:07:32;19.40;;;4.20;;
17604;SDS011;8921;50.964;6.800;2023-11-19T08:10:00;17.37;;;4.30;;
17604;SDS011;8921;50.964;6.800;2023-11-19T08:12:29;23.13;;;4.90;;
17604;SDS011;8921;50.964;6.800;2023-11-19T08:14:57;21.73;;;5.57;;
17604;SDS011;8921;50.964;6.800;2023-11-19T08:17:25;18.87;;;6.33;;
17604;SDS011;8921;50.964;6.800;2023-11-19T08:19:53;22.03;;;5.03;;
17604;SDS011;8921;50.964;6.800;2023-11-19T08:22:22;21.13;;;4.73;;
17604;SDS011;8921;50.964;6.800;2023-11-19T08:24:50;24.80;;;5.90;;
17604;SDS011;8921;50.964;6.800;2023-11-19T08:27:18;16.20;;;3.90;;
17604;SDS011;8921;50.964;6.800;2023-11-19T08:29:46;14.50;;;5.93;;
17604;SDS011;8921;50.964;6.800;2023-11-19T08:32:15;17.00;;;5.30;;
17604;SDS011;8921;50.964;6.800;2023-11-19T08:34:43;17.03;;;4.57;;
17604;SDS011;8921;50.964;6.800;2023-11-19T08:37:11;24.03;;;5.20;;
17604;SDS011;8921;50.964;6.800;2023-11-19T08:39:40;19.77;;;5.53;;
17604;SDS011;8921;50.964;6.800;2023-11-19T08:42:08;23.23;;;5.10;;
17604;SDS011;8921;50.964;6.800;2023-11-19T08:44:36;19.03;;;4.77;;
17604;SDS011;8921;50.964;6.800;2023-11-19T08:47:04;21.47;;;5.53;;
17604;SDS011;8921;50.964;6.800;2023-11-19T08:49:33;21.93;;;4.50;;
17604;SDS011;8921;50.964;6.800;2023-11-19T08:52:01;20.60;;;4.40;;
17604;SDS011;8921;50.964;6.800;2023-11-19T08:54:29;14.77;;;3.80;;
17604;SDS011;8921;50.964;6.800;2023-11-19T08:56:58;13.43;;;3.77;;
17604;SDS011;8921;50.964;6.800;2023-11-19T08:59:26;19.53;;;4.23;;
17604;SDS011;8921;50.964;6.800;2023-11-19T09:01:54;19.23;;;4.87;;
17604;SDS011;8921;50.964;6.800;2023-11-19T09:04:22;14.33;;;4.43;;
17604;SDS011;8921;50.964;6.800;2023-11-19T09:06:51;24.13;;;5.30;;
17604;SDS011;8921;50.964;6.800;2023-11-19T09:09:19;19.73;;;4.07;;
17604;SDS011;8921;50.964;6.800;2023-11-19T09:11:47;15.10;;;6.17;;
17604;SDS011;8921;50.964;6.800;2023-11-19T09:14:15;13.30;;;3.97;;
17604;SDS011;8921;50.964;6.800;2023-11-19T09:16:44;24.90;;;6.30;;
17604;SDS011;8921;50.964;6.800;2023-11-19T09:19:12;18.87;;;5.53;;
17604;SDS011;8921;50.964;6.800;2023-11-19T09:21:40;27.53;;;5.23;;
17604;SDS011;8921;50.964;6.800;2023-11-19T09:24:09;22.70;;;4.70;;
17604;SDS011;8921;50.964;6.800;2023-11-19T09:26:37;29.80;;;4.70;;
17604;SDS011;8921;50.964;6.800;2023-11-19T09:29:05;25.67;;;4.73;;
17604;SDS011;8921;50.964;6.800;2023-11-19T09:31:33;16.70;;;4.40;;
17604;SDS011;8921;50.964;6.800;2023-11-19T09:34:02;22.80;;;5.97;;
17604;SDS011;8921;50.964;6.800;2023-11-19T09:36:30;19.37;;;4.37;;
17604;SDS011;8921;50.964;6.800;2023-11-19T09:38:58;14.80;;;3.87;;
17604;SDS011;8921;50.964;6.800;2023-11-19T09:41:26;19.97;;;4.00;;
17604;SDS011;8921;50.964;6.800;2023-11-19T09:43:55;12.87;;;4.23;;
17604;SDS011;8921;50.964;6.800;2023-11-19T09:46:23;33.30;;;7.30;;
17604;SDS011;8921;50.964;6.800;2023-11-19T09:48:54;21.43;;;5.47;;
17604;SDS011;8921;50.964;6.800;2023-11-19T09:51:22;15.83;;;4.30;;
17604;SDS011;8921;50.964;6.800;2023-11-19T09:53:50;18.33;;;4.10;;
17604;SDS011;8921;50.964;6.800;2023-11-19T09:56:19;17.97;;;5.10;;
17604;SDS011;8921;50.964;6.800;2023-11-19T09:58:47;19.23;;;4.70;;
17604;SDS011;8921;50.964;6.800;2023-11-19T10:01:15;19.50;;;3.70;;
17604;SDS011;8921;50.964;6.800;2023-11-19T10:03:44;17.03;;;3.87;;
17604;SDS011;8921;50.964;6.800;2023-11-19T10:06:12;16.37;;;3.90;;
17604;SDS011;8921;50.964;6.800;2023-11-19T10:08:41;16.47;;;4.67;;
17604;SDS011;8921;50.964;6.800;2023-11-19T10:11:08;16.87;;;3.93;;
17604;SDS011;8921;50.964;6.800;2023-11-19T10:13:37;20.13;;;4.90;;
17604;SDS011;8921;50.964;6.800;2023-11-19T10:16:08;18.87;;;4.23;;
17604;SDS011;8921;50.964;6.800;2023-11-19T10:18:36;15.73;;;4.07;;
17604;SDS011;8921;50.964;6.800;2023-11-19T10:21:05;16.17;;;4.27;;
17604;SDS011;8921;50.964;6.800;2023-11-19T10:23:51;24.37;;;5.10;;
17604;SDS011;8921;50.964;6.800;2023-11-19T10:26:16;24.67;;;4.87;;
17604;SDS011;8921;50.964;6.800;2023-11-19T10:28:48;17.93;;;4.17;;
17604;SDS011;8921;50.964;6.800;2023-11-19T10:31:16;19.70;;;5.00;;
17604;SDS011;8921;50.964;6.800;2023-11-19T10:33:44;21.33;;;3.63;;
17604;SDS011;8921;50.964;6.800;2023-11-19T10:36:12;14.97;;;3.63;;
17604;SDS011;8921;50.964;6.800;2023-11-19T10:38:41;22.07;;;4.67;;
17604;SDS011;8921;50.964;6.800;2023-11-19T10:41:09;17.50;;;4.03;;
17604;SDS011;8921;50.964;6.800;2023-11-19T10:43:43;18.10;;;4.40;;
17604;SDS011;8921;50.964;6.800;2023-11-19T10:46:12;21.33;;;4.20;;
17604;SDS011;8921;50.964;6.800;2023-11-19T10:48:40;18.83;;;3.73;;
17604;SDS011;8921;50.964;6.800;2023-11-19T10:51:08;22.20;;;3.77;;
17604;SDS011;8921;50.964;6.800;2023-11-19T10:53:37;13.30;;;3.97;;
17604;SDS011;8921;50.964;6.800;2023-11-19T10:56:05;19.67;;;4.80;;
17604;SDS011;8921;50.964;6.800;2023-11-19T10:58:33;23.07;;;4.83;;
17604;SDS011;8921;50.964;6.800;2023-11-19T11:01:01;20.63;;;4.83;;
17604;SDS011;8921;50.964;6.800;2023-11-19T11:03:32;15.10;;;3.53;;
17604;SDS011;8921;50.964;6.800;2023-11-19T11:05:58;17.90;;;3.73;;
17604;SDS011;8921;50.964;6.800;2023-11-19T11:08:26;16.67;;;4.30;;
17604;SDS011;8921;50.964;6.800;2023-11-19T11:10:55;22.23;;;4.03;;
17604;SDS011;8921;50.964;6.800;2023-11-19T11:13:23;16.83;;;4.27;;
17604;SDS011;8921;50.964;6.800;2023-11-19T11:15:51;17.83;;;4.43;;
17604;SDS011;8921;50.964;6.800;2023-11-19T11:18:19;16.73;;;4.30;;
17604;SDS011;8921;50.964;6.800;2023-11-19T11:20:47;18.87;;;4.07;;
17604;SDS011;8921;50.964;6.800;2023-11-19T11:23:24;14.17;;;3.70;;
17604;SDS011;8921;50.964;6.800;2023-11-19T11:28:59;21.23;;;4.20;;
17604;SDS011;8921;50.964;6.800;2023-11-19T11:34:24;17.07;;;4.50;;
17604;SDS011;8921;50.964;6.800;2023-11-19T11:39:36;13.03;;;4.17;;
17604;SDS011;8921;50.964;6.800;2023-11-19T11:50:16;13.47;;;3.37;;
17604;SDS011;8921;50.964;6.800;2023-11-19T11:55:36;16.70;;;3.60;;
17604;SDS011;8921;50.964;6.800;2023-11-19T11:58:07;14.47;;;3.97;;
17604;SDS011;8921;50.964;6.800;2023-11-19T12:00:39;13.27;;;3.40;;
17604;SDS011;8921;50.964;6.800;2023-11-19T12:03:07;16.93;;;2.90;;
17604;SDS011;8921;50.964;6.800;2023-11-19T12:05:41;14.20;;;3.50;;
17604;SDS011;8921;50.964;6.800;2023-11-19T12:08:10;15.90;;;3.33;;
17604;SDS011;8921;50.964;6.800;2023-11-19T12:10:47;15.10;;;4.37;;
17604;SDS011;8921;50.964;6.800;2023-11-19T12:13:05;13.53;;;3.40;;
17604;SDS011;8921;50.964;6.800;2023-11-19T12:15:34;20.13;;;3.90;;
17604;SDS011;8921;50.964;6.800;2023-11-19T12:18:02;16.70;;;3.60;;
17604;SDS011;8921;50.964;6.800;2023-11-19T12:20:30;19.57;;;3.63;;
17604;SDS011;8921;50.964;6.800;2023-11-19T12:22:59;18.97;;;3.70;;
17604;SDS011;8921;50.964;6.800;2023-11-19T12:25:27;19.53;;;5.20;;
17604;SDS011;8921;50.964;6.800;2023-11-19T12:27:55;15.53;;;3.10;;
17604;SDS011;8921;50.964;6.800;2023-11-19T12:30:24;20.13;;;3.50;;
17604;SDS011;8921;50.964;6.800;2023-11-19T12:32:52;18.63;;;3.63;;
17604;SDS011;8921;50.964;6.800;2023-11-19T12:35:20;16.60;;;4.63;;
17604;SDS011;8921;50.964;6.800;2023-11-19T12:37:49;17.03;;;4.57;;
17604;SDS011;8921;50.964;6.800;2023-11-19T12:40:17;20.30;;;5.13;;
17604;SDS011;8921;50.964;6.800;2023-11-19T12:42:45;18.87;;;6.60;;
17604;SDS011;8921;50.964;6.800;2023-11-19T12:45:13;15.03;;;3.50;;
17604;SDS011;8921;50.964;6.800;2023-11-19T12:47:42;14.87;;;3.70;;
17604;SDS011;8921;50.964;6.800;2023-11-19T12:50:16;15.50;;;3.47;;
17604;SDS011;8921;50.964;6.800;2023-11-19T12:52:56;10.50;;;3.97;;
17604;SDS011;8921;50.964;6.800;2023-11-19T12:55:25;14.87;;;4.07;;
17604;SDS011;8921;50.964;6.800;2023-11-19T12:57:56;13.27;;;2.40;;
17604;SDS011;8921;50.964;6.800;2023-11-19T13:00:24;7.77;;;2.60;;
17604;SDS011;8921;50.964;6.800;2023-11-19T13:02:53;15.73;;;3.37;;
17604;SDS011;8921;50.964;6.800;2023-11-19T13:05:23;11.90;;;3.90;;
17604;SDS011;8921;50.964;6.800;2023-11-19T13:07:58;16.90;;;4.20;;
17604;SDS011;8921;50.964;6.800;2023-11-19T13:10:26;12.53;;;3.03;;
17604;SDS011;8921;50.964;6.800;2023-11-19T13:13:02;23.83;;;5.03;;
17604;SDS011;8921;50.964;6.800;2023-11-19T13:15:31;10.60;;;2.70;;
17604;SDS011;8921;50.964;6.800;2023-11-19T13:17:59;10.67;;;2.70;;
17604;SDS011;8921;50.964;6.800;2023-11-19T13:20:28;15.20;;;3.20;;
17604;SDS011;8921;50.964;6.800;2023-11-19T13:25:27;14.67;;;3.93;;
17604;SDS011;8921;50.964;6.800;2023-11-19T13:27:55;17.77;;;4.50;;
17604;SDS011;8921;50.964;6.800;2023-11-19T13:30:24;14.47;;;3.70;;
17604;SDS011;8921;50.964;6.800;2023-11-19T13:32:52;13.57;;;3.33;;
17604;SDS011;8921;50.964;6.800;2023-11-19T13:35:20;20.90;;;4.23;;
17604;SDS011;8921;50.964;6.800;2023-11-19T13:37:48;15.83;;;3.40;;
17604;SDS011;8921;50.964;6.800;2023-11-19T13:40:16;15.73;;;4.63;;
17604;SDS011;8921;50.964;6.800;2023-11-19T13:42:45;20.30;;;4.30;;
17604;SDS011;8921;50.964;6.800;2023-11-19T13:45:13;21.33;;;4.87;;
17604;SDS011;8921;50.964;6.800;2023-11-19T13:47:43;13.40;;;2.97;;
17604;SDS011;8921;50.964;6.800;2023-11-19T13:50:19;17.83;;;4.13;;
17604;SDS011;8921;50.964;6.800;2023-11-19T13:52:44;18.43;;;3.67;;
17604;SDS011;8921;50.964;6.800;2023-11-19T13:55:12;18.10;;;4.40;;
17604;SDS011;8921;50.964;6.800;2023-11-19T13:57:41;17.43;;;3.40;;
17604;SDS011;8921;50.964;6.800;2023-11-19T14:00:09;15.60;;;4.70;;
17604;SDS011;8921;50.964;6.800;2023-11-19T14:02:37;16.97;;;3.87;;
17604;SDS011;8921;50.964;6.800;2023-11-19T14:05:06;19.50;;;4.37;;
17604;SDS011;8921;50.964;6.800;2023-11-19T14:07:34;12.00;;;3.50;;
17604;SDS011;8921;50.964;6.800;2023-11-19T14:10:02;17.60;;;3.70;;
17604;SDS011;8921;50.964;6.800;2023-11-19T14:12:31;16.30;;;4.30;;
17604;SDS011;8921;50.964;6.800;2023-11-19T14:14:59;18.27;;;4.73;;
17604;SDS011;8921;50.964;6.800;2023-11-19T14:17:27;15.20;;;4.43;;
17604;SDS011;8921;50.964;6.800;2023-11-19T14:19:55;13.90;;;3.97;;
17604;SDS011;8921;50.964;6.800;2023-11-19T14:22:24;18.47;;;4.27;;
17604;SDS011;8921;50.964;6.800;2023-11-19T14:24:52;15.60;;;4.27;;
17604;SDS011;8921;50.964;6.800;2023-11-19T14:27:20;19.70;;;3.60;;
17604;SDS011;8921;50.964;6.800;2023-11-19T14:29:48;14.00;;;4.20;;
17604;SDS011;8921;50.964;6.800;2023-11-19T14:32:17;24.30;;;4.37;;
17604;SDS011;8921;50.964;6.800;2023-11-19T14:34:45;31.73;;;4.43;;
17604;SDS011;8921;50.964;6.800;2023-11-19T14:37:13;17.50;;;4.33;;
17604;SDS011;8921;50.964;6.800;2023-11-19T14:39:41;15.53;;;2.80;;
17604;SDS011;8921;50.964;6.800;2023-11-19T14:42:10;15.53;;;3.50;;
17604;SDS011;8921;50.964;6.800;2023-11-19T14:44:38;15.40;;;5.00;;
17604;SDS011;8921;50.964;6.800;2023-11-19T14:47:06;21.80;;;3.67;;
17604;SDS011;8921;50.964;6.800;2023-11-19T14:49:35;18.33;;;3.83;;
17604;SDS011;8921;50.964;6.800;2023-11-19T14:52:06;14.50;;;3.80;;
17604;SDS011;8921;50.964;6.800;2023-11-19T14:54:34;16.43;;;3.93;;
17604;SDS011;8921;50.964;6.800;2023-11-19T14:57:02;16.40;;;3.70;;
17604;SDS011;8921;50.964;6.800;2023-11-19T14:59:31;16.90;;;3.40;;
17604;SDS011;8921;50.964;6.800;2023-11-19T15:01:59;16.67;;;4.37;;
17604;SDS011;8921;50.964;6.800;2023-11-19T15:04:27;14.87;;;3.97;;
17604;SDS011;8921;50.964;6.800;2023-11-19T15:06:59;13.47;;;3.53;;
17604;SDS011;8921;50.964;6.800;2023-11-19T15:09:27;22.13;;;4.87;;
17604;SDS011;8921;50.964;6.800;2023-11-19T15:11:55;18.43;;;4.13;;
17604;SDS011;8921;50.964;6.800;2023-11-19T15:14:23;12.33;;;2.90;;
17604;SDS011;8921;50.964;6.800;2023-11-19T15:16:52;17.20;;;3.03;;
17604;SDS011;8921;50.964;6.800;2023-11-19T15:19:20;13.13;;;3.83;;